sensor_id;sensor_type;location;lat;lon;timestamp;P1;durP1;ratioP1;P2;durP2;ratioP2
47599;SDS011;33323;52.124;6.018;2023-08-08T00:01:33;6.53;;;3.90;;
47599;SDS011;33323;52.124;6.018;2023-08-08T00:04:01;11.10;;;4.75;;
47599;SDS011;33323;52.124;6.018;2023-08-08T00:06:28;9.40;;;3.67;;
47599;SDS011;33323;52.124;6.018;2023-08-08T00:08:55;6.80;;;3.15;;
47599;SDS011;33323;52.124;6.018;2023-08-08T00:11:22;9.85;;;3.92;;
47599;SDS011;33323;52.124;6.018;2023-08-08T00:13:49;6.43;;;3.25;;
47599;SDS011;33323;52.124;6.018;2023-08-08T00:16:16;11.90;;;4.32;;
47599;SDS011;33323;52.124;6.018;2023-08-08T00:18:43;6.30;;;3.65;;
47599;SDS011;33323;52.124;6.018;2023-08-08T00:21:10;6.78;;;3.17;;
47599;SDS011;33323;52.124;6.018;2023-08-08T00:23:37;12.77;;;4.72;;
47599;SDS011;33323;52.124;6.018;2023-08-08T00:26:04;7.65;;;3.78;;
47599;SDS011;33323;52.124;6.018;2023-08-08T00:28:31;10.18;;;4.47;;
47599;SDS011;33323;52.124;6.018;2023-08-08T00:30:58;10.40;;;4.05;;
47599;SDS011;33323;52.124;6.018;2023-08-08T00:33:25;7.65;;;3.38;;
47599;SDS011;33323;52.124;6.018;2023-08-08T00:35:53;6.30;;;3.33;;
47599;SDS011;33323;52.124;6.018;2023-08-08T00:38:20;11.00;;;4.43;;
47599;SDS011;33323;52.124;6.018;2023-08-08T00:40:47;6.13;;;3.47;;
47599;SDS011;33323;52.124;6.018;2023-08-08T00:43:14;9.73;;;3.38;;
47599;SDS011;33323;52.124;6.018;2023-08-08T00:45:42;11.90;;;3.65;;
47599;SDS011;33323;52.124;6.018;2023-08-08T00:48:10;7.45;;;3.60;;
47599;SDS011;33323;52.124;6.018;2023-08-08T00:50:41;6.63;;;4.18;;
47599;SDS011;33323;52.124;6.018;2023-08-08T00:53:10;7.47;;;3.83;;
47599;SDS011;33323;52.124;6.018;2023-08-08T00:55:38;8.63;;;3.88;;
47599;SDS011;33323;52.124;6.018;2023-08-08T00:58:05;6.03;;;4.25;;
47599;SDS011;33323;52.124;6.018;2023-08-08T01:00:32;7.53;;;3.78;;
47599;SDS011;33323;52.124;6.018;2023-08-08T01:02:59;8.18;;;4.03;;
47599;SDS011;33323;52.124;6.018;2023-08-08T01:05:27;9.82;;;3.90;;
47599;SDS011;33323;52.124;6.018;2023-08-08T01:08:04;9.43;;;3.50;;
47599;SDS011;33323;52.124;6.018;2023-08-08T01:10:39;9.90;;;4.45;;
47599;SDS011;33323;52.124;6.018;2023-08-08T01:13:13;9.15;;;4.82;;
47599;SDS011;33323;52.124;6.018;2023-08-08T01:15:44;10.15;;;3.90;;
47599;SDS011;33323;52.124;6.018;2023-08-08T01:18:15;7.80;;;3.40;;
47599;SDS011;33323;52.124;6.018;2023-08-08T01:20:43;11.27;;;4.50;;
47599;SDS011;33323;52.124;6.018;2023-08-08T01:23:16;7.38;;;3.63;;
47599;SDS011;33323;52.124;6.018;2023-08-08T01:25:54;8.90;;;4.57;;
47599;SDS011;33323;52.124;6.018;2023-08-08T01:28:25;9.00;;;4.00;;
47599;SDS011;33323;52.124;6.018;2023-08-08T01:30:52;10.55;;;3.38;;
47599;SDS011;33323;52.124;6.018;2023-08-08T01:33:20;9.95;;;4.47;;
47599;SDS011;33323;52.124;6.018;2023-08-08T01:35:50;10.75;;;4.28;;
47599;SDS011;33323;52.124;6.018;2023-08-08T01:38:29;7.65;;;3.50;;
47599;SDS011;33323;52.124;6.018;2023-08-08T01:43:28;14.15;;;4.95;;
47599;SDS011;33323;52.124;6.018;2023-08-08T01:45:57;13.82;;;4.60;;
47599;SDS011;33323;52.124;6.018;2023-08-08T01:48:27;20.55;;;5.10;;
47599;SDS011;33323;52.124;6.018;2023-08-08T01:50:54;8.88;;;4.25;;
47599;SDS011;33323;52.124;6.018;2023-08-08T01:53:21;8.70;;;3.40;;
47599;SDS011;33323;52.124;6.018;2023-08-08T01:55:49;9.48;;;4.07;;
47599;SDS011;33323;52.124;6.018;2023-08-08T01:58:16;8.93;;;3.67;;
47599;SDS011;33323;52.124;6.018;2023-08-08T02:00:43;10.52;;;3.60;;
47599;SDS011;33323;52.124;6.018;2023-08-08T02:03:11;13.55;;;4.35;;
47599;SDS011;33323;52.124;6.018;2023-08-08T02:05:38;11.95;;;3.45;;
47599;SDS011;33323;52.124;6.018;2023-08-08T02:08:06;9.80;;;4.03;;
47599;SDS011;33323;52.124;6.018;2023-08-08T02:10:34;8.35;;;3.55;;
47599;SDS011;33323;52.124;6.018;2023-08-08T02:13:01;8.05;;;3.40;;
47599;SDS011;33323;52.124;6.018;2023-08-08T02:15:28;13.93;;;3.60;;
47599;SDS011;33323;52.124;6.018;2023-08-08T02:17:57;11.20;;;3.63;;
47599;SDS011;33323;52.124;6.018;2023-08-08T02:20:26;10.38;;;4.13;;
47599;SDS011;33323;52.124;6.018;2023-08-08T02:22:53;11.25;;;4.07;;
47599;SDS011;33323;52.124;6.018;2023-08-08T02:25:20;6.65;;;3.10;;
47599;SDS011;33323;52.124;6.018;2023-08-08T02:27:47;8.63;;;3.58;;
47599;SDS011;33323;52.124;6.018;2023-08-08T02:30:14;9.10;;;3.30;;
47599;SDS011;33323;52.124;6.018;2023-08-08T02:32:42;11.60;;;4.35;;
47599;SDS011;33323;52.124;6.018;2023-08-08T02:35:09;7.15;;;3.35;;
47599;SDS011;33323;52.124;6.018;2023-08-08T02:37:36;8.85;;;3.53;;
47599;SDS011;33323;52.124;6.018;2023-08-08T02:40:04;13.85;;;4.10;;
47599;SDS011;33323;52.124;6.018;2023-08-08T02:42:32;15.07;;;4.18;;
47599;SDS011;33323;52.124;6.018;2023-08-08T02:44:59;9.35;;;3.85;;
47599;SDS011;33323;52.124;6.018;2023-08-08T02:47:26;8.48;;;3.55;;
47599;SDS011;33323;52.124;6.018;2023-08-08T02:49:54;6.75;;;4.68;;
47599;SDS011;33323;52.124;6.018;2023-08-08T02:52:21;13.45;;;4.28;;
47599;SDS011;33323;52.124;6.018;2023-08-08T02:54:48;9.60;;;4.47;;
47599;SDS011;33323;52.124;6.018;2023-08-08T02:57:15;8.45;;;3.80;;
47599;SDS011;33323;52.124;6.018;2023-08-08T02:59:43;13.05;;;3.60;;
47599;SDS011;33323;52.124;6.018;2023-08-08T03:02:10;6.63;;;3.85;;
47599;SDS011;33323;52.124;6.018;2023-08-08T03:04:38;10.88;;;4.50;;
47599;SDS011;33323;52.124;6.018;2023-08-08T03:07:07;8.93;;;3.17;;
47599;SDS011;33323;52.124;6.018;2023-08-08T03:09:36;11.52;;;3.60;;
47599;SDS011;33323;52.124;6.018;2023-08-08T03:12:03;11.68;;;4.38;;
47599;SDS011;33323;52.124;6.018;2023-08-08T03:14:32;7.15;;;3.42;;
47599;SDS011;33323;52.124;6.018;2023-08-08T03:17:01;13.63;;;4.07;;
47599;SDS011;33323;52.124;6.018;2023-08-08T03:19:30;11.90;;;4.45;;
47599;SDS011;33323;52.124;6.018;2023-08-08T03:21:59;9.00;;;4.35;;
47599;SDS011;33323;52.124;6.018;2023-08-08T03:24:27;9.65;;;4.03;;
47599;SDS011;33323;52.124;6.018;2023-08-08T03:26:54;7.95;;;4.13;;
47599;SDS011;33323;52.124;6.018;2023-08-08T03:29:21;8.60;;;3.72;;
47599;SDS011;33323;52.124;6.018;2023-08-08T03:31:48;29.10;;;4.43;;
47599;SDS011;33323;52.124;6.018;2023-08-08T03:34:16;8.52;;;3.15;;
47599;SDS011;33323;52.124;6.018;2023-08-08T03:36:43;7.78;;;4.20;;
47599;SDS011;33323;52.124;6.018;2023-08-08T03:39:11;5.57;;;3.60;;
47599;SDS011;33323;52.124;6.018;2023-08-08T03:41:38;9.40;;;3.45;;
47599;SDS011;33323;52.124;6.018;2023-08-08T03:44:05;10.45;;;3.53;;
47599;SDS011;33323;52.124;6.018;2023-08-08T03:46:33;7.72;;;3.17;;
47599;SDS011;33323;52.124;6.018;2023-08-08T03:49:01;13.15;;;4.38;;
47599;SDS011;33323;52.124;6.018;2023-08-08T03:51:29;7.18;;;3.47;;
47599;SDS011;33323;52.124;6.018;2023-08-08T03:53:56;9.48;;;4.30;;
47599;SDS011;33323;52.124;6.018;2023-08-08T03:56:23;7.00;;;3.78;;
47599;SDS011;33323;52.124;6.018;2023-08-08T03:58:52;8.45;;;3.83;;
47599;SDS011;33323;52.124;6.018;2023-08-08T04:01:20;7.45;;;3.83;;
47599;SDS011;33323;52.124;6.018;2023-08-08T04:03:47;8.50;;;4.30;;
47599;SDS011;33323;52.124;6.018;2023-08-08T04:06:14;8.93;;;3.97;;
47599;SDS011;33323;52.124;6.018;2023-08-08T04:08:41;18.55;;;4.35;;
47599;SDS011;33323;52.124;6.018;2023-08-08T04:11:09;11.52;;;3.63;;
47599;SDS011;33323;52.124;6.018;2023-08-08T04:13:36;9.70;;;4.53;;
47599;SDS011;33323;52.124;6.018;2023-08-08T04:16:03;11.82;;;4.70;;
47599;SDS011;33323;52.124;6.018;2023-08-08T04:18:30;12.60;;;4.30;;
47599;SDS011;33323;52.124;6.018;2023-08-08T04:20:57;11.68;;;5.68;;
47599;SDS011;33323;52.124;6.018;2023-08-08T04:23:24;12.23;;;5.00;;
47599;SDS011;33323;52.124;6.018;2023-08-08T04:25:52;10.65;;;4.72;;
47599;SDS011;33323;52.124;6.018;2023-08-08T04:28:20;9.13;;;3.60;;
47599;SDS011;33323;52.124;6.018;2023-08-08T04:30:47;15.48;;;4.10;;
47599;SDS011;33323;52.124;6.018;2023-08-08T04:33:14;14.05;;;5.10;;
47599;SDS011;33323;52.124;6.018;2023-08-08T04:35:41;9.90;;;5.20;;
47599;SDS011;33323;52.124;6.018;2023-08-08T04:38:08;11.18;;;4.20;;
47599;SDS011;33323;52.124;6.018;2023-08-08T04:40:36;11.82;;;4.63;;
47599;SDS011;33323;52.124;6.018;2023-08-08T04:43:04;13.13;;;4.93;;
47599;SDS011;33323;52.124;6.018;2023-08-08T04:45:31;10.50;;;5.28;;
47599;SDS011;33323;52.124;6.018;2023-08-08T04:47:59;8.77;;;4.10;;
47599;SDS011;33323;52.124;6.018;2023-08-08T04:50:26;12.30;;;5.43;;
47599;SDS011;33323;52.124;6.018;2023-08-08T04:52:54;11.57;;;5.10;;
47599;SDS011;33323;52.124;6.018;2023-08-08T04:55:21;17.23;;;4.82;;
47599;SDS011;33323;52.124;6.018;2023-08-08T04:57:48;16.15;;;5.03;;
47599;SDS011;33323;52.124;6.018;2023-08-08T05:00:16;9.85;;;5.35;;
47599;SDS011;33323;52.124;6.018;2023-08-08T05:02:43;9.32;;;5.75;;
47599;SDS011;33323;52.124;6.018;2023-08-08T05:05:10;15.98;;;6.32;;
47599;SDS011;33323;52.124;6.018;2023-08-08T05:07:37;14.15;;;5.47;;
47599;SDS011;33323;52.124;6.018;2023-08-08T05:10:04;14.25;;;5.85;;
47599;SDS011;33323;52.124;6.018;2023-08-08T05:12:32;11.20;;;5.07;;
47599;SDS011;33323;52.124;6.018;2023-08-08T05:14:59;10.68;;;5.43;;
47599;SDS011;33323;52.124;6.018;2023-08-08T05:17:26;13.50;;;5.60;;
47599;SDS011;33323;52.124;6.018;2023-08-08T05:19:54;14.40;;;5.78;;
47599;SDS011;33323;52.124;6.018;2023-08-08T05:22:21;12.30;;;5.68;;
47599;SDS011;33323;52.124;6.018;2023-08-08T05:24:48;13.63;;;5.10;;
47599;SDS011;33323;52.124;6.018;2023-08-08T05:27:15;14.40;;;5.30;;
47599;SDS011;33323;52.124;6.018;2023-08-08T05:29:42;11.80;;;4.35;;
47599;SDS011;33323;52.124;6.018;2023-08-08T05:32:09;12.43;;;4.82;;
47599;SDS011;33323;52.124;6.018;2023-08-08T05:34:36;10.05;;;4.55;;
47599;SDS011;33323;52.124;6.018;2023-08-08T05:37:04;8.38;;;3.88;;
47599;SDS011;33323;52.124;6.018;2023-08-08T05:39:43;8.23;;;3.60;;
47599;SDS011;33323;52.124;6.018;2023-08-08T05:42:11;7.70;;;3.33;;
47599;SDS011;33323;52.124;6.018;2023-08-08T05:44:38;10.15;;;3.72;;
47599;SDS011;33323;52.124;6.018;2023-08-08T05:47:05;10.07;;;3.78;;
47599;SDS011;33323;52.124;6.018;2023-08-08T05:49:32;7.55;;;3.72;;
47599;SDS011;33323;52.124;6.018;2023-08-08T05:52:00;9.18;;;3.55;;
47599;SDS011;33323;52.124;6.018;2023-08-08T05:54:29;5.72;;;3.22;;
47599;SDS011;33323;52.124;6.018;2023-08-08T05:56:56;14.75;;;3.40;;
47599;SDS011;33323;52.124;6.018;2023-08-08T05:59:23;9.38;;;3.28;;
47599;SDS011;33323;52.124;6.018;2023-08-08T06:01:50;14.20;;;3.85;;
47599;SDS011;33323;52.124;6.018;2023-08-08T06:04:18;8.73;;;3.22;;
47599;SDS011;33323;52.124;6.018;2023-08-08T06:06:45;9.18;;;2.90;;
47599;SDS011;33323;52.124;6.018;2023-08-08T06:09:15;6.63;;;2.53;;
47599;SDS011;33323;52.124;6.018;2023-08-08T06:11:43;9.30;;;3.22;;
47599;SDS011;33323;52.124;6.018;2023-08-08T06:14:10;9.07;;;3.60;;
47599;SDS011;33323;52.124;6.018;2023-08-08T06:16:37;8.85;;;3.83;;
47599;SDS011;33323;52.124;6.018;2023-08-08T06:19:04;7.88;;;3.47;;
47599;SDS011;33323;52.124;6.018;2023-08-08T06:21:32;12.98;;;3.10;;
47599;SDS011;33323;52.124;6.018;2023-08-08T06:23:59;5.55;;;2.47;;
47599;SDS011;33323;52.124;6.018;2023-08-08T06:26:26;7.78;;;2.25;;
47599;SDS011;33323;52.124;6.018;2023-08-08T06:28:54;9.60;;;2.90;;
47599;SDS011;33323;52.124;6.018;2023-08-08T06:31:21;6.53;;;1.95;;
47599;SDS011;33323;52.124;6.018;2023-08-08T06:33:48;7.95;;;2.10;;
47599;SDS011;33323;52.124;6.018;2023-08-08T06:36:16;6.78;;;3.22;;
47599;SDS011;33323;52.124;6.018;2023-08-08T06:38:43;9.88;;;2.42;;
47599;SDS011;33323;52.124;6.018;2023-08-08T06:41:10;7.65;;;1.73;;
47599;SDS011;33323;52.124;6.018;2023-08-08T06:43:39;4.82;;;1.70;;
47599;SDS011;33323;52.124;6.018;2023-08-08T06:46:06;6.63;;;2.22;;
47599;SDS011;33323;52.124;6.018;2023-08-08T06:48:33;5.32;;;1.35;;
47599;SDS011;33323;52.124;6.018;2023-08-08T06:51:00;3.28;;;1.83;;
47599;SDS011;33323;52.124;6.018;2023-08-08T06:53:27;10.68;;;2.15;;
47599;SDS011;33323;52.124;6.018;2023-08-08T06:55:54;5.25;;;1.88;;
47599;SDS011;33323;52.124;6.018;2023-08-08T06:58:21;4.53;;;1.42;;
47599;SDS011;33323;52.124;6.018;2023-08-08T07:00:50;3.97;;;1.00;;
47599;SDS011;33323;52.124;6.018;2023-08-08T07:03:17;5.00;;;1.08;;
47599;SDS011;33323;52.124;6.018;2023-08-08T07:05:44;4.28;;;0.93;;
47599;SDS011;33323;52.124;6.018;2023-08-08T07:08:13;3.38;;;0.80;;
47599;SDS011;33323;52.124;6.018;2023-08-08T07:10:40;4.95;;;1.02;;
47599;SDS011;33323;52.124;6.018;2023-08-08T07:13:08;2.20;;;0.80;;
47599;SDS011;33323;52.124;6.018;2023-08-08T07:15:35;10.55;;;1.63;;
47599;SDS011;33323;52.124;6.018;2023-08-08T07:18:02;2.90;;;0.80;;
47599;SDS011;33323;52.124;6.018;2023-08-08T07:20:31;2.40;;;0.75;;
47599;SDS011;33323;52.124;6.018;2023-08-08T07:22:57;5.88;;;1.10;;
47599;SDS011;33323;52.124;6.018;2023-08-08T07:25:26;6.82;;;0.93;;
47599;SDS011;33323;52.124;6.018;2023-08-08T07:27:53;4.53;;;1.02;;
47599;SDS011;33323;52.124;6.018;2023-08-08T07:30:20;3.90;;;0.80;;
47599;SDS011;33323;52.124;6.018;2023-08-08T07:32:48;8.77;;;1.33;;
47599;SDS011;33323;52.124;6.018;2023-08-08T07:35:15;2.22;;;0.70;;
47599;SDS011;33323;52.124;6.018;2023-08-08T07:37:42;2.78;;;0.80;;
47599;SDS011;33323;52.124;6.018;2023-08-08T07:40:15;7.25;;;1.17;;
47599;SDS011;33323;52.124;6.018;2023-08-08T07:42:46;6.88;;;1.42;;
47599;SDS011;33323;52.124;6.018;2023-08-08T07:45:14;1.52;;;0.65;;
47599;SDS011;33323;52.124;6.018;2023-08-08T07:47:42;2.67;;;0.85;;
47599;SDS011;33323;52.124;6.018;2023-08-08T07:50:10;3.85;;;0.65;;
47599;SDS011;33323;52.124;6.018;2023-08-08T07:52:38;5.75;;;0.63;;
47599;SDS011;33323;52.124;6.018;2023-08-08T07:55:06;7.85;;;1.48;;
47599;SDS011;33323;52.124;6.018;2023-08-08T07:57:33;2.47;;;1.00;;
47599;SDS011;33323;52.124;6.018;2023-08-08T08:00:02;3.55;;;0.57;;
47599;SDS011;33323;52.124;6.018;2023-08-08T08:02:42;4.45;;;1.25;;
47599;SDS011;33323;52.124;6.018;2023-08-08T08:05:10;4.45;;;0.70;;
47599;SDS011;33323;52.124;6.018;2023-08-08T08:07:38;1.80;;;0.50;;
47599;SDS011;33323;52.124;6.018;2023-08-08T08:10:07;4.57;;;0.60;;
47599;SDS011;33323;52.124;6.018;2023-08-08T08:12:36;3.17;;;0.52;;
47599;SDS011;33323;52.124;6.018;2023-08-08T08:15:04;4.00;;;0.70;;
47599;SDS011;33323;52.124;6.018;2023-08-08T08:17:31;5.03;;;0.50;;
47599;SDS011;33323;52.124;6.018;2023-08-08T08:19:59;1.50;;;0.50;;
47599;SDS011;33323;52.124;6.018;2023-08-08T08:22:26;1.70;;;0.40;;
47599;SDS011;33323;52.124;6.018;2023-08-08T08:24:53;3.45;;;1.13;;
47599;SDS011;33323;52.124;6.018;2023-08-08T08:27:20;2.60;;;0.60;;
47599;SDS011;33323;52.124;6.018;2023-08-08T08:29:47;5.13;;;0.50;;
47599;SDS011;33323;52.124;6.018;2023-08-08T08:32:14;2.97;;;0.52;;
47599;SDS011;33323;52.124;6.018;2023-08-08T08:34:41;3.30;;;0.75;;
47599;SDS011;33323;52.124;6.018;2023-08-08T08:37:10;1.65;;;0.75;;
47599;SDS011;33323;52.124;6.018;2023-08-08T08:39:37;2.08;;;0.55;;
47599;SDS011;33323;52.124;6.018;2023-08-08T08:42:04;4.78;;;0.50;;
47599;SDS011;33323;52.124;6.018;2023-08-08T08:44:33;1.58;;;0.40;;
47599;SDS011;33323;52.124;6.018;2023-08-08T08:47:03;4.85;;;0.52;;
47599;SDS011;33323;52.124;6.018;2023-08-08T08:49:36;1.52;;;0.40;;
47599;SDS011;33323;52.124;6.018;2023-08-08T08:52:05;1.15;;;0.30;;
47599;SDS011;33323;52.124;6.018;2023-08-08T08:54:32;1.48;;;0.30;;
47599;SDS011;33323;52.124;6.018;2023-08-08T08:57:00;1.38;;;0.43;;
47599;SDS011;33323;52.124;6.018;2023-08-08T08:59:27;1.05;;;0.30;;
47599;SDS011;33323;52.124;6.018;2023-08-08T09:01:54;1.08;;;0.30;;
47599;SDS011;33323;52.124;6.018;2023-08-08T09:04:22;1.42;;;0.32;;
47599;SDS011;33323;52.124;6.018;2023-08-08T09:06:50;1.92;;;0.38;;
47599;SDS011;33323;52.124;6.018;2023-08-08T09:09:18;3.63;;;0.35;;
47599;SDS011;33323;52.124;6.018;2023-08-08T09:11:50;3.75;;;0.65;;
47599;SDS011;33323;52.124;6.018;2023-08-08T09:14:24;0.82;;;0.25;;
47599;SDS011;33323;52.124;6.018;2023-08-08T09:16:53;1.58;;;0.30;;
47599;SDS011;33323;52.124;6.018;2023-08-08T09:19:21;0.93;;;0.38;;
47599;SDS011;33323;52.124;6.018;2023-08-08T09:21:48;3.33;;;0.30;;
47599;SDS011;33323;52.124;6.018;2023-08-08T09:24:17;1.40;;;0.35;;
47599;SDS011;33323;52.124;6.018;2023-08-08T09:26:45;1.15;;;0.30;;
47599;SDS011;33323;52.124;6.018;2023-08-08T09:29:13;1.73;;;0.30;;
47599;SDS011;33323;52.124;6.018;2023-08-08T09:31:41;0.90;;;0.20;;
47599;SDS011;33323;52.124;6.018;2023-08-08T09:34:09;2.72;;;0.50;;
47599;SDS011;33323;52.124;6.018;2023-08-08T09:36:36;2.08;;;0.28;;
47599;SDS011;33323;52.124;6.018;2023-08-08T09:39:03;1.23;;;0.28;;
47599;SDS011;33323;52.124;6.018;2023-08-08T09:41:34;3.53;;;0.60;;
47599;SDS011;33323;52.124;6.018;2023-08-08T09:44:01;6.80;;;0.60;;
47599;SDS011;33323;52.124;6.018;2023-08-08T09:46:29;0.47;;;0.20;;
47599;SDS011;33323;52.124;6.018;2023-08-08T09:48:57;2.80;;;0.22;;
47599;SDS011;33323;52.124;6.018;2023-08-08T09:51:25;1.35;;;0.40;;
47599;SDS011;33323;52.124;6.018;2023-08-08T09:53:53;1.58;;;0.30;;
47599;SDS011;33323;52.124;6.018;2023-08-08T09:56:23;1.17;;;0.40;;
47599;SDS011;33323;52.124;6.018;2023-08-08T09:58:52;5.20;;;0.57;;
47599;SDS011;33323;52.124;6.018;2023-08-08T10:01:20;1.08;;;0.65;;
47599;SDS011;33323;52.124;6.018;2023-08-08T10:03:48;1.27;;;0.45;;
47599;SDS011;33323;52.124;6.018;2023-08-08T10:06:18;0.52;;;0.25;;
47599;SDS011;33323;52.124;6.018;2023-08-08T10:08:45;1.15;;;0.15;;
47599;SDS011;33323;52.124;6.018;2023-08-08T10:11:13;0.88;;;0.40;;
47599;SDS011;33323;52.124;6.018;2023-08-08T10:13:47;0.20;;;0.15;;
47599;SDS011;33323;52.124;6.018;2023-08-08T10:16:17;0.93;;;0.20;;
47599;SDS011;33323;52.124;6.018;2023-08-08T10:18:45;1.25;;;0.20;;
47599;SDS011;33323;52.124;6.018;2023-08-08T10:21:23;2.55;;;0.52;;
47599;SDS011;33323;52.124;6.018;2023-08-08T10:24:01;0.70;;;0.30;;
47599;SDS011;33323;52.124;6.018;2023-08-08T10:26:33;0.47;;;0.40;;
47599;SDS011;33323;52.124;6.018;2023-08-08T10:29:18;0.90;;;0.28;;
47599;SDS011;33323;52.124;6.018;2023-08-08T10:32:02;1.98;;;0.30;;
47599;SDS011;33323;52.124;6.018;2023-08-08T10:34:44;0.98;;;0.20;;
47599;SDS011;33323;52.124;6.018;2023-08-08T10:37:14;0.60;;;0.22;;
47599;SDS011;33323;52.124;6.018;2023-08-08T10:39:51;1.27;;;0.30;;
47599;SDS011;33323;52.124;6.018;2023-08-08T10:42:20;0.90;;;0.30;;
47599;SDS011;33323;52.124;6.018;2023-08-08T10:44:51;3.40;;;0.60;;
47599;SDS011;33323;52.124;6.018;2023-08-08T10:47:36;2.47;;;0.28;;
47599;SDS011;33323;52.124;6.018;2023-08-08T10:50:12;3.05;;;0.60;;
47599;SDS011;33323;52.124;6.018;2023-08-08T10:55:22;1.73;;;0.22;;
47599;SDS011;33323;52.124;6.018;2023-08-08T11:00:39;0.75;;;0.35;;
47599;SDS011;33323;52.124;6.018;2023-08-08T11:03:08;1.02;;;0.30;;
47599;SDS011;33323;52.124;6.018;2023-08-08T11:05:36;1.70;;;0.70;;
47599;SDS011;33323;52.124;6.018;2023-08-08T11:08:05;0.50;;;0.30;;
47599;SDS011;33323;52.124;6.018;2023-08-08T11:10:39;1.25;;;0.40;;
47599;SDS011;33323;52.124;6.018;2023-08-08T11:13:07;0.52;;;0.35;;
47599;SDS011;33323;52.124;6.018;2023-08-08T11:15:36;1.23;;;0.43;;
47599;SDS011;33323;52.124;6.018;2023-08-08T11:18:05;2.45;;;0.50;;
47599;SDS011;33323;52.124;6.018;2023-08-08T11:20:34;4.10;;;0.50;;
47599;SDS011;33323;52.124;6.018;2023-08-08T11:23:03;1.58;;;0.38;;
47599;SDS011;33323;52.124;6.018;2023-08-08T11:25:39;0.85;;;0.38;;
47599;SDS011;33323;52.124;6.018;2023-08-08T11:28:09;1.38;;;0.32;;
47599;SDS011;33323;52.124;6.018;2023-08-08T11:30:39;0.98;;;0.38;;
47599;SDS011;33323;52.124;6.018;2023-08-08T11:33:13;2.38;;;0.50;;
47599;SDS011;33323;52.124;6.018;2023-08-08T11:35:45;1.48;;;0.50;;
47599;SDS011;33323;52.124;6.018;2023-08-08T11:38:13;2.08;;;0.40;;
47599;SDS011;33323;52.124;6.018;2023-08-08T11:40:41;0.40;;;0.30;;
47599;SDS011;33323;52.124;6.018;2023-08-08T11:43:10;2.75;;;0.60;;
47599;SDS011;33323;52.124;6.018;2023-08-08T11:45:38;1.25;;;0.30;;
47599;SDS011;33323;52.124;6.018;2023-08-08T11:48:07;2.20;;;0.38;;
47599;SDS011;33323;52.124;6.018;2023-08-08T11:50:36;1.08;;;0.40;;
47599;SDS011;33323;52.124;6.018;2023-08-08T11:53:07;2.88;;;0.50;;
47599;SDS011;33323;52.124;6.018;2023-08-08T11:55:34;1.02;;;0.20;;
47599;SDS011;33323;52.124;6.018;2023-08-08T11:58:03;1.45;;;0.30;;
47599;SDS011;33323;52.124;6.018;2023-08-08T12:00:32;0.55;;;0.40;;
47599;SDS011;33323;52.124;6.018;2023-08-08T12:03:00;1.15;;;0.47;;
47599;SDS011;33323;52.124;6.018;2023-08-08T12:05:35;1.85;;;0.32;;
47599;SDS011;33323;52.124;6.018;2023-08-08T12:08:06;1.25;;;0.30;;
47599;SDS011;33323;52.124;6.018;2023-08-08T12:10:35;1.38;;;0.30;;
47599;SDS011;33323;52.124;6.018;2023-08-08T12:13:02;0.95;;;0.52;;
47599;SDS011;33323;52.124;6.018;2023-08-08T12:15:33;2.47;;;1.20;;
47599;SDS011;33323;52.124;6.018;2023-08-08T12:18:02;0.82;;;0.30;;
47599;SDS011;33323;52.124;6.018;2023-08-08T12:20:31;0.47;;;0.43;;
47599;SDS011;33323;52.124;6.018;2023-08-08T12:22:58;2.03;;;0.50;;
47599;SDS011;33323;52.124;6.018;2023-08-08T12:25:26;0.90;;;0.35;;
47599;SDS011;33323;52.124;6.018;2023-08-08T12:27:54;1.48;;;0.30;;
47599;SDS011;33323;52.124;6.018;2023-08-08T12:30:21;1.23;;;0.85;;
47599;SDS011;33323;52.124;6.018;2023-08-08T12:32:48;2.42;;;0.30;;
47599;SDS011;33323;52.124;6.018;2023-08-08T12:35:16;0.82;;;0.43;;
47599;SDS011;33323;52.124;6.018;2023-08-08T12:37:43;2.88;;;0.32;;
47599;SDS011;33323;52.124;6.018;2023-08-08T12:40:10;0.60;;;0.30;;
47599;SDS011;33323;52.124;6.018;2023-08-08T12:42:38;3.28;;;0.38;;
47599;SDS011;33323;52.124;6.018;2023-08-08T12:45:06;2.78;;;0.38;;
47599;SDS011;33323;52.124;6.018;2023-08-08T12:47:34;1.17;;;0.32;;
47599;SDS011;33323;52.124;6.018;2023-08-08T12:50:05;1.40;;;0.35;;
47599;SDS011;33323;52.124;6.018;2023-08-08T12:52:34;2.13;;;0.40;;
47599;SDS011;33323;52.124;6.018;2023-08-08T12:55:02;2.22;;;0.60;;
47599;SDS011;33323;52.124;6.018;2023-08-08T12:57:30;0.60;;;0.30;;
47599;SDS011;33323;52.124;6.018;2023-08-08T12:59:58;3.80;;;0.47;;
47599;SDS011;33323;52.124;6.018;2023-08-08T13:02:25;0.85;;;0.30;;
47599;SDS011;33323;52.124;6.018;2023-08-08T13:04:52;0.65;;;0.45;;
47599;SDS011;33323;52.124;6.018;2023-08-08T13:07:19;2.75;;;0.30;;
47599;SDS011;33323;52.124;6.018;2023-08-08T13:09:46;0.90;;;0.50;;
47599;SDS011;33323;52.124;6.018;2023-08-08T13:12:14;0.85;;;0.40;;
47599;SDS011;33323;52.124;6.018;2023-08-08T13:14:41;1.70;;;0.32;;
47599;SDS011;33323;52.124;6.018;2023-08-08T13:17:08;3.17;;;0.43;;
47599;SDS011;33323;52.124;6.018;2023-08-08T13:19:35;0.65;;;0.40;;
47599;SDS011;33323;52.124;6.018;2023-08-08T13:22:03;5.85;;;0.40;;
47599;SDS011;33323;52.124;6.018;2023-08-08T13:24:30;2.35;;;0.50;;
47599;SDS011;33323;52.124;6.018;2023-08-08T13:26:57;0.50;;;0.30;;
47599;SDS011;33323;52.124;6.018;2023-08-08T13:29:24;0.68;;;0.50;;
47599;SDS011;33323;52.124;6.018;2023-08-08T13:31:52;1.80;;;0.28;;
47599;SDS011;33323;52.124;6.018;2023-08-08T13:34:19;2.45;;;0.77;;
47599;SDS011;33323;52.124;6.018;2023-08-08T13:36:46;1.55;;;0.75;;
47599;SDS011;33323;52.124;6.018;2023-08-08T13:39:13;1.58;;;0.43;;
47599;SDS011;33323;52.124;6.018;2023-08-08T13:41:40;1.67;;;0.40;;
47599;SDS011;33323;52.124;6.018;2023-08-08T13:44:07;7.13;;;0.50;;
47599;SDS011;33323;52.124;6.018;2023-08-08T13:46:35;2.67;;;0.50;;
47599;SDS011;33323;52.124;6.018;2023-08-08T13:49:02;1.98;;;0.50;;
47599;SDS011;33323;52.124;6.018;2023-08-08T13:51:30;1.00;;;0.45;;
47599;SDS011;33323;52.124;6.018;2023-08-08T13:53:57;6.75;;;0.40;;
47599;SDS011;33323;52.124;6.018;2023-08-08T13:56:24;1.80;;;0.40;;
47599;SDS011;33323;52.124;6.018;2023-08-08T13:58:51;0.52;;;0.30;;
47599;SDS011;33323;52.124;6.018;2023-08-08T14:01:18;3.30;;;0.50;;
47599;SDS011;33323;52.124;6.018;2023-08-08T14:03:45;2.00;;;0.38;;
47599;SDS011;33323;52.124;6.018;2023-08-08T14:06:13;3.30;;;0.30;;
47599;SDS011;33323;52.124;6.018;2023-08-08T14:08:40;0.65;;;0.30;;
47599;SDS011;33323;52.124;6.018;2023-08-08T14:11:07;1.98;;;0.47;;
47599;SDS011;33323;52.124;6.018;2023-08-08T14:13:34;5.65;;;0.50;;
47599;SDS011;33323;52.124;6.018;2023-08-08T14:16:03;2.25;;;0.40;;
47599;SDS011;33323;52.124;6.018;2023-08-08T14:18:30;3.75;;;0.90;;
47599;SDS011;33323;52.124;6.018;2023-08-08T14:20:58;1.98;;;0.55;;
47599;SDS011;33323;52.124;6.018;2023-08-08T14:23:25;2.72;;;0.40;;
47599;SDS011;33323;52.124;6.018;2023-08-08T14:25:52;2.13;;;0.82;;
47599;SDS011;33323;52.124;6.018;2023-08-08T14:28:19;1.42;;;0.50;;
47599;SDS011;33323;52.124;6.018;2023-08-08T14:30:49;5.82;;;0.50;;
47599;SDS011;33323;52.124;6.018;2023-08-08T14:33:16;3.85;;;0.40;;
47599;SDS011;33323;52.124;6.018;2023-08-08T14:35:43;0.45;;;0.30;;
47599;SDS011;33323;52.124;6.018;2023-08-08T14:38:11;0.98;;;0.43;;
47599;SDS011;33323;52.124;6.018;2023-08-08T14:40:38;0.88;;;0.50;;
47599;SDS011;33323;52.124;6.018;2023-08-08T14:43:06;2.85;;;0.45;;
47599;SDS011;33323;52.124;6.018;2023-08-08T14:45:37;3.28;;;0.50;;
47599;SDS011;33323;52.124;6.018;2023-08-08T14:48:05;2.75;;;1.10;;
47599;SDS011;33323;52.124;6.018;2023-08-08T14:50:33;1.27;;;0.60;;
47599;SDS011;33323;52.124;6.018;2023-08-08T14:53:01;1.50;;;0.63;;
47599;SDS011;33323;52.124;6.018;2023-08-08T14:55:28;2.13;;;0.50;;
47599;SDS011;33323;52.124;6.018;2023-08-08T14:57:55;1.52;;;0.70;;
47599;SDS011;33323;52.124;6.018;2023-08-08T15:00:22;1.45;;;0.50;;